createdAt,value
2022-08-02T00:01:24.904Z,19.20
2022-08-02T00:04:11.195Z,19.00
2022-08-02T00:06:57.040Z,19.00
2022-08-02T00:09:43.441Z,18.90
2022-08-02T00:12:29.176Z,18.90
2022-08-02T00:15:15.985Z,18.90
2022-08-02T00:18:02.031Z,18.80
2022-08-02T00:20:47.681Z,18.90
2022-08-02T00:23:33.277Z,18.90
2022-08-02T00:26:38.965Z,18.90
2022-08-02T00:29:24.893Z,18.80
2022-08-02T00:32:10.667Z,18.80
2022-08-02T00:34:56.585Z,18.70
2022-08-02T00:37:42.485Z,18.70
2022-08-02T00:40:28.036Z,18.70
2022-08-02T00:43:13.571Z,18.60
2022-08-02T00:45:59.114Z,18.50
2022-08-02T00:48:49.956Z,18.60
2022-08-02T00:51:36.091Z,18.40
2022-08-02T00:54:21.584Z,18.40
2022-08-02T00:57:07.171Z,18.40
2022-08-02T00:59:52.810Z,18.50
2022-08-02T01:02:38.347Z,18.40
2022-08-02T01:05:23.945Z,18.30
2022-08-02T01:08:09.904Z,18.30
2022-08-02T01:10:55.657Z,18.20
2022-08-02T01:13:43.455Z,18.20
2022-08-02T01:16:32.157Z,18.20
2022-08-02T01:19:33.428Z,18.20
2022-08-02T01:23:00.628Z,18.10
2022-08-02T01:26:20.638Z,18.10
2022-08-02T01:29:15.497Z,18.00
2022-08-02T01:32:07.305Z,18.00
2022-08-02T01:34:59.959Z,18.00
2022-08-02T01:38:11.813Z,18.00
2022-08-02T01:40:59.943Z,17.90
2022-08-02T01:43:47.901Z,17.90
2022-08-02T01:46:34.824Z,17.80
2022-08-02T01:49:23.114Z,17.70
2022-08-02T01:52:21.537Z,17.60
2022-08-02T01:55:18.795Z,17.60
2022-08-02T01:58:07.324Z,17.60
2022-08-02T02:00:56.601Z,17.60
2022-08-02T02:03:44.165Z,17.50
2022-08-02T02:06:31.136Z,17.50
2022-08-02T02:09:18.243Z,17.50
2022-08-02T02:12:13.458Z,17.50
2022-08-02T02:15:01.343Z,17.50
2022-08-02T02:17:52.058Z,17.40
2022-08-02T02:20:56.033Z,17.40
2022-08-02T02:23:43.568Z,17.30
2022-08-02T02:26:32.076Z,17.30
2022-08-02T02:29:21.868Z,17.20
2022-08-02T02:32:07.838Z,17.20
2022-08-02T02:34:54.737Z,17.30
2022-08-02T02:37:41.801Z,17.20
2022-08-02T02:40:29.635Z,17.20
2022-08-02T02:43:17.314Z,17.10
2022-08-02T02:46:05.317Z,17.00
2022-08-02T02:48:52.366Z,17.10
2022-08-02T02:51:40.666Z,17.00
2022-08-02T02:54:34.483Z,17.00
2022-08-02T02:57:22.217Z,16.90
2022-08-02T03:00:10.890Z,17.00
2022-08-02T03:02:57.263Z,16.90
2022-08-02T03:05:43.081Z,16.90
2022-08-02T03:08:29.121Z,16.90
2022-08-02T03:11:15.580Z,16.90
2022-08-02T03:14:03.544Z,16.90
2022-08-02T03:16:51.958Z,16.90
2022-08-02T03:19:37.965Z,16.90
2022-08-02T03:22:23.744Z,16.80
2022-08-02T03:25:10.481Z,16.70
2022-08-02T03:27:56.071Z,16.70
2022-08-02T03:30:41.517Z,16.60
2022-08-02T03:33:27.880Z,16.60
2022-08-02T03:36:16.668Z,16.60
2022-08-02T03:39:03.799Z,16.60
2022-08-02T03:41:50.180Z,16.60
2022-08-02T03:44:39.450Z,16.50
2022-08-02T03:47:25.901Z,16.50
2022-08-02T03:50:14.885Z,16.50
2022-08-02T03:53:02.354Z,16.40
2022-08-02T03:55:49.065Z,16.40
2022-08-02T03:58:35.065Z,16.30
2022-08-02T04:01:20.878Z,16.20
2022-08-02T04:04:07.333Z,16.30
2022-08-02T04:06:53.065Z,16.20
2022-08-02T04:09:38.785Z,16.20
2022-08-02T04:12:24.476Z,16.20
2022-08-02T04:15:13.973Z,16.20
2022-08-02T04:18:02.867Z,16.20
2022-08-02T04:20:51.590Z,16.20
2022-08-02T04:23:37.892Z,16.30
2022-08-02T04:26:28.315Z,16.30
2022-08-02T04:29:14.998Z,16.30
2022-08-02T04:32:01.498Z,16.20
2022-08-02T04:35:17.741Z,16.20
2022-08-02T04:38:09.784Z,16.30
2022-08-02T04:40:56.396Z,16.30
2022-08-02T04:43:42.102Z,16.20
2022-08-02T04:46:27.796Z,16.30
2022-08-02T04:49:13.775Z,16.30
2022-08-02T04:52:01.098Z,16.40
2022-08-02T04:54:47.237Z,16.30
2022-08-02T04:57:52.836Z,16.30
2022-08-02T05:00:38.864Z,16.30
2022-08-02T05:03:24.361Z,16.30
2022-08-02T05:06:18.846Z,16.30
2022-08-02T05:09:05.553Z,16.50
2022-08-02T05:11:54.914Z,16.50
2022-08-02T05:14:40.648Z,16.40
2022-08-02T05:17:26.435Z,16.40
2022-08-02T05:20:15.117Z,16.40
2022-08-02T05:23:00.912Z,16.40
2022-08-02T05:25:46.530Z,16.40
2022-08-02T05:28:32.090Z,16.40
2022-08-02T05:31:22.529Z,16.50
2022-08-02T05:34:11.826Z,16.50
2022-08-02T05:36:57.866Z,16.60
2022-08-02T05:39:55.653Z,16.60
2022-08-02T05:42:42.424Z,16.70
2022-08-02T05:45:28.293Z,16.70
2022-08-02T05:48:14.150Z,16.80
2022-08-02T05:51:05.299Z,16.80
2022-08-02T05:53:52.281Z,16.90
2022-08-02T05:56:51.117Z,16.90
2022-08-02T06:00:00.501Z,17.00
2022-08-02T06:03:38.047Z,17.20
2022-08-02T06:06:26.682Z,17.40
2022-08-02T06:09:23.313Z,17.40
2022-08-02T06:12:17.007Z,17.50
2022-08-02T06:15:04.817Z,17.50
2022-08-02T06:17:50.904Z,17.60
2022-08-02T06:20:38.002Z,17.70
2022-08-02T06:23:25.900Z,17.80
2022-08-02T06:26:13.449Z,17.80
2022-08-02T06:28:59.324Z,17.90
2022-08-02T06:31:45.399Z,17.90
2022-08-02T06:34:31.153Z,18.10
2022-08-02T06:37:44.294Z,18.10
2022-08-02T06:40:35.849Z,18.20
2022-08-02T06:43:46.968Z,18.30
2022-08-02T06:47:09.643Z,18.40
2022-08-02T06:49:52.977Z,18.50
2022-08-02T06:52:39.884Z,18.80
2022-08-02T06:55:25.326Z,19.10
2022-08-02T06:58:11.805Z,19.30
2022-08-02T07:00:57.757Z,19.50
2022-08-02T07:03:43.568Z,19.60
2022-08-02T07:06:29.332Z,19.70
2022-08-02T07:09:20.882Z,19.70
2022-08-02T07:12:07.368Z,19.80
2022-08-02T07:14:53.283Z,19.90
2022-08-02T07:17:39.046Z,20.00
2022-08-02T07:20:25.024Z,20.00
2022-08-02T07:23:10.953Z,20.10
2022-08-02T07:26:02.396Z,20.10
2022-08-02T07:28:48.944Z,20.10
2022-08-02T07:31:34.589Z,20.10
2022-08-02T07:34:20.063Z,20.20
2022-08-02T07:37:05.692Z,20.20
2022-08-02T07:39:54.629Z,20.30
2022-08-02T07:42:40.288Z,20.30
2022-08-02T07:45:27.090Z,20.40
2022-08-02T07:48:12.742Z,20.40
2022-08-02T07:50:58.130Z,20.50
2022-08-02T07:53:50.603Z,20.50
2022-08-02T07:56:47.795Z,20.60
2022-08-02T07:59:43.077Z,20.70
2022-08-02T08:02:28.712Z,20.70
2022-08-02T08:05:14.486Z,20.70
2022-08-02T08:08:00.251Z,20.80
2022-08-02T08:10:47.025Z,20.80
2022-08-02T08:13:32.784Z,20.90
2022-08-02T08:16:18.797Z,20.90
2022-08-02T08:19:04.432Z,21.00
2022-08-02T08:21:50.179Z,21.00
2022-08-02T08:24:35.646Z,21.00
2022-08-02T08:27:22.686Z,21.10
2022-08-02T08:30:09.353Z,21.10
2022-08-02T08:32:54.723Z,21.20
2022-08-02T08:35:40.443Z,21.20
2022-08-02T08:38:28.080Z,21.30
2022-08-02T08:41:16.813Z,21.30
2022-08-02T08:44:02.820Z,21.40
2022-08-02T08:46:50.125Z,21.40
2022-08-02T08:49:52.757Z,21.40
2022-08-02T08:53:07.435Z,21.50
2022-08-02T08:55:56.421Z,21.50
2022-08-02T08:58:43.352Z,21.50
2022-08-02T09:01:49.829Z,21.60
2022-08-02T09:04:35.528Z,21.60
2022-08-02T09:07:21.054Z,21.70
2022-08-02T09:10:32.224Z,21.70
2022-08-02T09:13:37.898Z,21.80
2022-08-02T09:16:30.291Z,21.80
2022-08-02T09:19:21.436Z,21.90
2022-08-02T09:22:09.210Z,21.90
2022-08-02T09:24:55.455Z,22.00
2022-08-02T09:27:41.101Z,22.00
2022-08-02T09:30:27.953Z,22.10
2022-08-02T09:33:25.561Z,22.10
2022-08-02T09:36:13.450Z,22.20
2022-08-02T09:39:03.210Z,22.20
2022-08-02T09:41:49.062Z,22.20
2022-08-02T09:44:34.864Z,22.30
2022-08-02T09:47:20.404Z,22.30
2022-08-02T09:50:06.465Z,22.40
2022-08-02T09:52:52.017Z,22.40
2022-08-02T09:55:37.618Z,22.50
2022-08-02T09:58:23.464Z,22.50
2022-08-02T10:01:09.773Z,22.60
2022-08-02T10:04:04.127Z,22.60
2022-08-02T10:06:51.686Z,22.60
2022-08-02T10:09:42.844Z,22.70
2022-08-02T10:12:32.417Z,22.80
2022-08-02T10:15:18.493Z,22.90
2022-08-02T10:18:28.824Z,22.90
2022-08-02T10:21:19.533Z,23.00
2022-08-02T10:24:08.836Z,23.10
2022-08-02T10:26:55.741Z,23.20
2022-08-02T10:29:50.493Z,23.30
2022-08-02T10:32:44.075Z,23.30
2022-08-02T10:35:33.844Z,23.30
2022-08-02T10:38:20.225Z,23.40
2022-08-02T10:41:08.004Z,23.50
2022-08-02T10:43:54.097Z,23.60
2022-08-02T10:46:39.818Z,23.60
2022-08-02T10:49:40.974Z,23.70
2022-08-02T10:52:28.902Z,23.80
2022-08-02T10:55:22.067Z,23.90
2022-08-02T10:58:18.248Z,24.00
2022-08-02T11:01:06.241Z,24.00
2022-08-02T11:03:59.513Z,24.00
2022-08-02T11:07:11.704Z,24.10
2022-08-02T11:09:59.339Z,24.20
2022-08-02T11:13:04.832Z,24.20
2022-08-02T11:16:01.351Z,24.30
2022-08-02T11:18:52.885Z,24.30
2022-08-02T11:21:38.366Z,24.40
2022-08-02T11:24:27.286Z,24.50
2022-08-02T11:27:21.910Z,24.60
2022-08-02T11:30:13.093Z,24.60
2022-08-02T11:32:59.887Z,24.70
2022-08-02T11:35:46.011Z,24.70
2022-08-02T11:38:32.142Z,24.80
2022-08-02T11:41:46.650Z,24.90
2022-08-02T11:44:29.823Z,25.00
2022-08-02T11:47:15.852Z,25.00
2022-08-02T11:50:09.496Z,25.10
2022-08-02T11:52:55.327Z,25.20
2022-08-02T11:55:40.784Z,25.20
2022-08-02T11:58:26.449Z,25.20
2022-08-02T12:01:11.855Z,25.30
2022-08-02T12:04:00.897Z,25.40
2022-08-02T12:06:56.247Z,25.40
2022-08-02T12:09:42.570Z,25.50
2022-08-02T12:12:28.441Z,25.60
2022-08-02T12:15:13.867Z,25.70
2022-08-02T12:18:18.514Z,25.70
2022-08-02T12:21:20.705Z,25.80
2022-08-02T12:24:06.590Z,25.80
2022-08-02T12:26:52.416Z,25.90
2022-08-02T12:29:58.724Z,25.90
2022-08-02T12:32:45.498Z,26.00
2022-08-02T12:35:31.161Z,26.00
2022-08-02T12:38:17.220Z,26.00
2022-08-02T12:41:30.936Z,26.10
2022-08-02T12:44:19.818Z,26.10
2022-08-02T12:47:12.018Z,26.20
2022-08-02T12:50:13.343Z,26.40
2022-08-02T12:53:13.457Z,26.50
2022-08-02T12:56:03.338Z,26.70
2022-08-02T12:58:51.244Z,26.70
2022-08-02T13:01:37.860Z,27.00
2022-08-02T13:04:23.264Z,27.10
2022-08-02T13:07:11.000Z,27.30
2022-08-02T13:10:02.697Z,27.40
2022-08-02T13:12:49.637Z,27.50
2022-08-02T13:15:50.199Z,27.60
2022-08-02T13:18:37.429Z,27.70
2022-08-02T13:21:40.040Z,27.80
2022-08-02T13:24:41.134Z,27.90
2022-08-02T13:27:34.050Z,27.90
2022-08-02T13:30:20.321Z,27.90
2022-08-02T13:33:06.077Z,29.10
2022-08-02T13:35:51.691Z,27.80
2022-08-02T13:38:37.085Z,27.70
2022-08-02T13:41:22.637Z,27.70
2022-08-02T13:44:10.799Z,27.70
2022-08-02T13:46:56.738Z,27.70
2022-08-02T13:49:51.326Z,27.80
2022-08-02T13:52:37.861Z,27.80
2022-08-02T13:55:24.351Z,27.90
2022-08-02T13:58:10.317Z,28.00
2022-08-02T14:00:56.189Z,28.20
2022-08-02T14:04:07.669Z,28.50
2022-08-02T14:06:47.197Z,28.70
2022-08-02T14:09:33.552Z,29.10
2022-08-02T14:12:19.593Z,29.40
2022-08-02T14:15:05.534Z,29.70
2022-08-02T14:17:51.152Z,29.90
2022-08-02T14:20:38.824Z,30.00
2022-08-02T14:23:49.626Z,30.20
2022-08-02T14:26:30.384Z,30.30
2022-08-02T14:29:17.246Z,30.40
2022-08-02T14:32:03.081Z,30.60
2022-08-02T14:34:48.604Z,30.70
2022-08-02T14:37:34.804Z,30.90
2022-08-02T14:40:31.499Z,31.10
2022-08-02T14:43:35.732Z,31.20
2022-08-02T14:46:21.092Z,31.30
2022-08-02T14:49:07.791Z,31.30
2022-08-02T14:51:56.324Z,31.30
2022-08-02T14:54:43.169Z,31.30
2022-08-02T14:57:28.815Z,31.30
2022-08-02T15:00:17.228Z,31.30
2022-08-02T15:03:02.706Z,31.40
2022-08-02T15:05:48.183Z,31.40
2022-08-02T15:08:34.845Z,31.40
2022-08-02T15:11:20.356Z,31.50
2022-08-02T15:14:06.024Z,31.60
2022-08-02T15:16:59.110Z,31.60
2022-08-02T15:19:57.790Z,31.60
2022-08-02T15:22:46.438Z,31.60
2022-08-02T15:25:41.113Z,31.50
2022-08-02T15:28:29.611Z,31.50
2022-08-02T15:31:22.377Z,31.50
2022-08-02T15:34:18.608Z,31.40
2022-08-02T15:37:04.545Z,32.10
2022-08-02T15:39:49.991Z,31.30
2022-08-02T15:42:35.483Z,31.30
2022-08-02T15:45:21.212Z,31.30
2022-08-02T15:48:07.471Z,31.20
2022-08-02T15:50:53.381Z,31.10
2022-08-02T15:53:38.828Z,31.10
2022-08-02T15:56:24.574Z,31.00
2022-08-02T15:59:10.295Z,30.90
2022-08-02T16:01:56.253Z,30.90
2022-08-02T16:04:41.954Z,30.80
2022-08-02T16:07:27.742Z,30.60
2022-08-02T16:10:13.753Z,30.50
2022-08-02T16:13:19.049Z,30.40
2022-08-02T16:16:05.216Z,30.30
2022-08-02T16:18:51.112Z,30.10
2022-08-02T16:21:36.798Z,29.90
2022-08-02T16:24:22.852Z,29.70
2022-08-02T16:27:08.751Z,29.40
2022-08-02T16:29:54.560Z,29.20
2022-08-02T16:32:40.461Z,29.10
2022-08-02T16:35:27.437Z,28.90
2022-08-02T16:38:12.926Z,28.00
2022-08-02T16:41:01.557Z,28.50
2022-08-02T16:43:47.441Z,28.30
2022-08-02T16:46:32.979Z,28.20
2022-08-02T16:50:07.208Z,28.00
2022-08-02T16:52:24.398Z,27.90
2022-08-02T16:55:11.105Z,27.80
2022-08-02T16:57:57.248Z,27.70
2022-08-02T17:00:46.452Z,27.60
2022-08-02T17:03:55.445Z,27.50
2022-08-02T17:06:38.574Z,27.50
2022-08-02T17:10:04.658Z,27.40
2022-08-02T17:12:33.148Z,27.30
2022-08-02T17:16:15.901Z,27.30
2022-08-02T17:18:26.501Z,27.30
2022-08-02T17:21:12.381Z,27.20
2022-08-02T17:24:07.827Z,27.20
2022-08-02T17:26:54.249Z,27.20
2022-08-02T17:29:42.079Z,27.20
2022-08-02T17:32:29.305Z,27.20
2022-08-02T17:35:15.505Z,27.20
2022-08-02T17:38:26.619Z,27.10
2022-08-02T17:41:15.244Z,27.10
2022-08-02T17:44:00.912Z,27.10
2022-08-02T17:46:47.715Z,27.10
2022-08-02T17:49:33.441Z,27.10
2022-08-02T17:52:51.145Z,27.10
2022-08-02T17:55:27.616Z,27.10
2022-08-02T17:58:16.818Z,27.00
2022-08-02T18:01:23.668Z,27.00
2022-08-02T18:04:10.340Z,27.00
2022-08-02T18:07:03.825Z,27.00
2022-08-02T18:09:50.222Z,27.00
2022-08-02T18:12:40.353Z,26.90
2022-08-02T18:15:26.487Z,26.90
2022-08-02T18:18:14.822Z,26.90
2022-08-02T18:21:15.877Z,26.90
2022-08-02T18:24:07.565Z,26.90
2022-08-02T18:26:53.395Z,26.90
2022-08-02T18:29:39.149Z,26.90
2022-08-02T18:33:01.115Z,26.80
2022-08-02T18:35:30.434Z,26.80
2022-08-02T18:38:16.148Z,26.80
2022-08-02T18:41:05.743Z,26.80
2022-08-02T18:43:58.688Z,26.80
2022-08-02T18:46:46.530Z,26.70
2022-08-02T18:49:46.832Z,26.70
2022-08-02T18:52:37.892Z,26.70
2022-08-02T18:56:00.279Z,26.70
2022-08-02T18:58:32.456Z,26.70
2022-08-02T19:04:27.043Z,26.60
2022-08-02T19:07:13.786Z,26.60
2022-08-02T19:10:00.175Z,26.60
2022-08-02T19:12:46.196Z,26.60
2022-08-02T19:15:38.438Z,26.60
2022-08-02T19:18:27.045Z,26.60
2022-08-02T19:21:16.068Z,26.60
2022-08-02T19:24:01.728Z,26.10
2022-08-02T19:26:51.655Z,26.60
2022-08-02T19:29:43.339Z,26.60
2022-08-02T19:32:40.743Z,26.60
2022-08-02T19:36:01.197Z,26.50
2022-08-02T19:38:49.086Z,26.50
2022-08-02T19:41:43.805Z,26.50
2022-08-02T19:44:32.214Z,26.40
2022-08-02T19:47:19.191Z,26.30
2022-08-02T19:50:05.911Z,26.20
2022-08-02T19:52:55.163Z,26.20
2022-08-02T19:56:00.656Z,26.10
2022-08-02T19:58:46.598Z,26.00
2022-08-02T20:01:38.182Z,25.90
2022-08-02T20:04:25.891Z,25.90
2022-08-02T20:07:11.663Z,25.80
2022-08-02T20:10:11.285Z,25.80
2022-08-02T20:12:57.217Z,25.80
2022-08-02T20:15:56.599Z,25.70
2022-08-02T20:18:42.649Z,25.70
2022-08-02T20:21:34.086Z,25.60
2022-08-02T20:24:22.656Z,25.60
2022-08-02T20:27:16.590Z,25.50
2022-08-02T20:30:03.078Z,25.50
2022-08-02T20:32:52.687Z,25.50
2022-08-02T20:35:40.110Z,25.50
2022-08-02T20:38:31.765Z,25.40
2022-08-02T20:41:21.380Z,25.40
2022-08-02T20:44:15.379Z,25.40
2022-08-02T20:47:02.045Z,25.40
2022-08-02T20:50:06.577Z,25.40
2022-08-02T20:52:53.508Z,25.30
2022-08-02T20:55:44.031Z,25.20
2022-08-02T20:58:29.452Z,25.20
2022-08-02T21:01:16.417Z,25.10
2022-08-02T21:04:02.602Z,25.00
2022-08-02T21:06:50.759Z,25.00
2022-08-02T21:09:52.827Z,25.00
2022-08-02T21:12:39.931Z,24.90
2022-08-02T21:15:31.154Z,24.90
2022-08-02T21:18:27.409Z,24.80
2022-08-02T21:21:19.651Z,24.80
2022-08-02T21:24:05.573Z,24.70
2022-08-02T21:26:51.066Z,24.60
2022-08-02T21:29:38.069Z,24.60
2022-08-02T21:32:23.850Z,24.60
2022-08-02T21:35:10.850Z,24.60
2022-08-02T21:37:58.016Z,24.50
2022-08-02T21:41:01.948Z,24.40
2022-08-02T21:43:47.485Z,24.40
2022-08-02T21:46:33.194Z,24.30
2022-08-02T21:49:41.195Z,24.30
2022-08-02T21:52:28.938Z,24.30
2022-08-02T21:55:14.931Z,24.30
2022-08-02T21:58:00.796Z,24.30
2022-08-02T22:00:46.993Z,24.20
2022-08-02T22:03:33.088Z,24.20
2022-08-02T22:06:18.926Z,24.20
2022-08-02T22:09:17.636Z,24.10
2022-08-02T22:12:06.517Z,24.10
2022-08-02T22:14:56.743Z,24.10
2022-08-02T22:17:51.750Z,24.00
2022-08-02T22:20:39.330Z,24.00
2022-08-02T22:23:38.693Z,24.00
2022-08-02T22:26:32.068Z,23.90
2022-08-02T22:29:17.784Z,23.90
2022-08-02T22:32:03.549Z,23.90
2022-08-02T22:34:51.866Z,23.80
2022-08-02T22:38:14.936Z,23.80
2022-08-02T22:40:43.613Z,23.90
2022-08-02T22:43:31.382Z,23.90
2022-08-02T22:46:19.882Z,23.90
2022-08-02T22:49:36.120Z,23.90
2022-08-02T22:52:20.162Z,23.80
2022-08-02T22:55:07.265Z,23.70
2022-08-02T22:57:57.050Z,23.70
2022-08-02T22:58:58.939Z,26.60
2022-08-02T23:00:43.000Z,23.60
2022-08-02T23:03:28.565Z,23.70
2022-08-02T23:06:14.452Z,23.60
2022-08-02T23:09:00.292Z,23.70
2022-08-02T23:11:45.684Z,23.60
2022-08-02T23:14:31.391Z,23.60
2022-08-02T23:17:36.116Z,23.60
2022-08-02T23:20:21.927Z,23.60
2022-08-02T23:23:11.889Z,23.60
2022-08-02T23:25:57.525Z,23.60
2022-08-02T23:28:42.845Z,23.50
2022-08-02T23:31:38.078Z,23.50
2022-08-02T23:34:23.911Z,23.40
2022-08-02T23:37:09.875Z,23.40
2022-08-02T23:39:55.395Z,23.40
2022-08-02T23:42:40.939Z,23.30
2022-08-02T23:45:26.485Z,23.30
2022-08-02T23:48:21.620Z,23.30
2022-08-02T23:51:07.135Z,23.20
2022-08-02T23:53:52.529Z,23.20
2022-08-02T23:56:39.097Z,23.20
2022-08-02T23:59:24.767Z,23.20
